»·PEaware :: SWA5035 KSFO-KSNA

SWA5035 :: KSFO-KSNA

FLIGHT INFORMATION

Flight Status: Arrived
Operator:
Southwest Airlines
More flights by this operator :: More flights under this callsign
Pilot: Kaleb W. (11686)
Aircraft: BOEING 737-800
(B738)
More flights by this aircraft type
Origin: KSFO San Francisco Intl
United States
Destination: KSNA John Wayne-Orange Co
United States
More flights between these airports :: More routes between these airports
Route: OFFSH2 MCKEY TILLT TILLT2
File this flight plan on PilotEdge
Remarks: RMK / SIMBRIEF
Altitude:
(Current/Filed)
37,000ft
Speed:
(Current/Filed)
447kts
Departed: 01-Feb-22 09:13 AM
Arrived: 01-Feb-22 10:24 AM
Distance/Time
Traveled:
323nm/1:11
Distance/Time
To Go:
Arrived

Flight Plot

Page will automatically refresh every two minutes.

Flight plan parsing failed; only flown route is shown


Map Options




Map Legend


Flown Route
Filed Route
Departure Airport
Arrival Airport
Navaid (VOR, NDB)
Fix

Horizontal Profiles

Position Reports

Time Latitude Longitude Heading Altitude Ground
Speed
01-Feb-22 08:45 37.611952 -122.386015 17 32ft 0kts
01-Feb-22 08:46 37.611952 -122.386015 17 32ft 0kts
01-Feb-22 08:47 37.611952 -122.386015 17 32ft 0kts
01-Feb-22 08:48 37.611952 -122.386015 17 32ft 0kts
01-Feb-22 08:49 37.611952 -122.386015 17 32ft 0kts
01-Feb-22 08:50 37.611952 -122.386015 17 32ft 0kts
01-Feb-22 08:51 37.611952 -122.386015 17 32ft 0kts
01-Feb-22 08:52 37.611952 -122.386015 17 32ft 0kts
01-Feb-22 08:53 37.611952 -122.386015 17 32ft 0kts
01-Feb-22 08:54 37.611952 -122.386015 17 32ft 0kts
01-Feb-22 08:55 37.611952 -122.386015 17 32ft 0kts
01-Feb-22 08:56 37.611952 -122.386015 17 32ft 0kts
01-Feb-22 08:57 37.611952 -122.386015 17 32ft 0kts
01-Feb-22 08:58 37.611952 -122.386015 17 32ft 0kts
01-Feb-22 08:59 37.611952 -122.386015 17 32ft 0kts
01-Feb-22 09:00 37.611642 -122.386140 18 32ft 2kts
01-Feb-22 09:01 37.611442 -122.386676 118 32ft 1kts
01-Feb-22 09:02 37.611469 -122.386735 117 32ft 0kts
01-Feb-22 09:03 37.611469 -122.386735 117 32ft 0kts
01-Feb-22 09:04 37.611469 -122.386735 117 32ft 0kts
01-Feb-22 09:05 37.610683 -122.386266 241 32ft 12kts
01-Feb-22 09:06 37.609308 -122.384156 140 32ft 0kts
01-Feb-22 09:07 37.609293 -122.384136 134 32ft 1kts
01-Feb-22 09:08 37.609000 -122.383673 123 32ft 0kts
01-Feb-22 09:09 37.608946 -122.383568 123 32ft 6kts
01-Feb-22 09:10 37.608932 -122.382323 43 32ft 0kts
01-Feb-22 09:11 37.608932 -122.382323 43 32ft 0kts
01-Feb-22 09:12 37.632240 -122.367007 24 567ft 186kts
01-Feb-22 09:13 37.691018 -122.364664 1 3276ft 244kts
01-Feb-22 09:14 37.751100 -122.401062 309 6911ft 254kts
01-Feb-22 09:15 37.768057 -122.488366 258 10149ft 287kts
01-Feb-22 09:16 37.705130 -122.570844 219 12140ft 356kts
01-Feb-22 09:17 37.624994 -122.644976 220 15009ft 368kts
01-Feb-22 09:18 37.537257 -122.713491 194 17601ft 389kts
01-Feb-22 09:19 37.428107 -122.694566 168 19913ft 406kts
01-Feb-22 09:20 37.316188 -122.664790 169 21997ft 419kts
01-Feb-22 09:21 37.201056 -122.634462 169 23894ft 431kts
01-Feb-22 09:22 37.082466 -122.603368 170 25696ft 440kts
01-Feb-22 09:23 36.962843 -122.572022 171 27533ft 442kts
01-Feb-22 09:24 36.841362 -122.540429 172 28949ft 451kts
01-Feb-22 09:25 36.717511 -122.508341 171 30215ft 460kts
01-Feb-22 09:26 36.592685 -122.476086 172 31680ft 460kts
01-Feb-22 09:27 36.468565 -122.442105 165 33245ft 459kts
01-Feb-22 09:28 36.365452 -122.349134 133 34482ft 474kts
01-Feb-22 09:29 36.280775 -122.225421 132 35730ft 470kts
01-Feb-22 09:30 36.196118 -122.102268 133 36717ft 471kts
01-Feb-22 09:31 36.111313 -121.979430 132 37088ft 470kts
01-Feb-22 09:32 36.026584 -121.857137 132 37091ft 467kts
01-Feb-22 09:33 35.942017 -121.735592 132 37090ft 470kts
01-Feb-22 09:34 35.857296 -121.614238 132 37088ft 467kts
01-Feb-22 09:35 35.772168 -121.492736 133 37078ft 470kts
01-Feb-22 09:36 35.687144 -121.371793 132 37073ft 468kts
01-Feb-22 09:37 35.601938 -121.250907 133 37073ft 468kts
01-Feb-22 09:38 35.516832 -121.130352 132 37072ft 471kts
01-Feb-22 09:39 35.448991 -120.992775 130 37040ft 471kts
01-Feb-22 09:40 35.352888 -120.887951 145 37010ft 464kts
01-Feb-22 09:41 35.255179 -120.785447 143 37028ft 463kts
01-Feb-22 09:42 35.157910 -120.681749 143 37026ft 465kts
01-Feb-22 09:43 35.060589 -120.578225 144 37024ft 464kts
01-Feb-22 09:44 34.956389 -120.489367 154 36253ft 455kts
01-Feb-22 09:45 34.850530 -120.403899 157 35254ft 460kts
01-Feb-22 09:46 34.744296 -120.318190 157 34246ft 456kts
01-Feb-22 09:47 34.637882 -120.232732 157 33247ft 460kts
01-Feb-22 09:48 34.531113 -120.147375 156 32249ft 461kts
01-Feb-22 09:49 34.424485 -120.062385 156 31244ft 455kts
01-Feb-22 09:50 34.320006 -119.979369 156 30245ft 449kts
01-Feb-22 09:51 34.216166 -119.897136 156 29242ft 443kts
01-Feb-22 09:52 34.114311 -119.816390 153 28242ft 438kts
01-Feb-22 09:53 34.033776 -119.702453 126 27242ft 456kts
01-Feb-22 09:54 33.969010 -119.573153 126 26241ft 448kts
01-Feb-22 09:55 33.904838 -119.446190 125 25240ft 439kts
01-Feb-22 09:56 33.845408 -119.320872 124 24126ft 428kts
01-Feb-22 09:57 33.783018 -119.196395 124 21245ft 440kts
01-Feb-22 09:58 33.722964 -119.077348 123 18992ft 393kts
01-Feb-22 09:59 33.667069 -118.965735 122 16876ft 388kts
01-Feb-22 10:00 33.613065 -118.857539 121 14815ft 357kts
01-Feb-22 10:01 33.563666 -118.758773 120 12895ft 341kts
01-Feb-22 10:02 33.515198 -118.662083 121 11107ft 336kts
01-Feb-22 10:03 33.504245 -118.557185 85 9550ft 325kts
01-Feb-22 10:05 33.512245 -118.461307 71 9013ft 268kts
01-Feb-22 10:06 33.519066 -118.370807 86 8267ft 271kts
01-Feb-22 10:07 33.532799 -118.285768 66 6377ft 254kts
01-Feb-22 10:08 33.558403 -118.206428 67 4989ft 250kts
01-Feb-22 10:09 33.589427 -118.138594 54 5030ft 215kts
01-Feb-22 10:10 33.622806 -118.078795 54 5008ft 215kts
01-Feb-22 10:11 33.656029 -118.019076 54 5009ft 216kts
01-Feb-22 10:12 33.689570 -117.958739 52 5008ft 218kts
01-Feb-22 10:13 33.738823 -117.919170 25 5007ft 215kts
01-Feb-22 10:14 33.790229 -117.886677 25 5017ft 193kts
01-Feb-22 10:15 33.837285 -117.855981 27 5007ft 192kts
01-Feb-22 10:16 33.883921 -117.824351 27 4989ft 189kts
01-Feb-22 10:17 33.925417 -117.788844 74 4031ft 185kts
01-Feb-22 10:18 33.892243 -117.757308 171 3036ft 173kts
01-Feb-22 10:19 33.842596 -117.751676 183 2999ft 181kts
01-Feb-22 10:20 33.798631 -117.778041 211 3017ft 173kts
01-Feb-22 10:21 33.761542 -117.805137 219 3021ft 158kts
01-Feb-22 10:22 33.726335 -117.834741 213 1560ft 151kts
01-Feb-22 10:23 33.690588 -117.859135 210 362ft 150kts
01-Feb-22 10:24 33.669032 -117.871663 138 65ft 0kts
01-Feb-22 10:25 33.669587 -117.870430 41 65ft 7kts
01-Feb-22 10:26 33.669881 -117.870120 41 65ft 0kts
01-Feb-22 10:27 33.670472 -117.869540 38 65ft 9kts
01-Feb-22 10:28 33.673894 -117.866609 27 65ft 16kts
01-Feb-22 10:28 33.677314 -117.864482 30 65ft 13kts
01-Feb-22 10:29 33.677560 -117.863534 114 65ft 0kts

Navigation Log

Ident Type
Flight plan parsing failed, navigation log unavailable